sensor_id;sensor_type;location;lat;lon;timestamp;P1;durP1;ratioP1;P2;durP2;ratioP2
11305;SDS011;5708;50.660;6.778;2023-11-22T00:00:57;21.80;;;14.05;;
11305;SDS011;5708;50.660;6.778;2023-11-22T00:03:22;19.60;;;12.43;;
11305;SDS011;5708;50.660;6.778;2023-11-22T00:05:49;19.95;;;12.90;;
11305;SDS011;5708;50.660;6.778;2023-11-22T00:08:14;22.77;;;13.00;;
11305;SDS011;5708;50.660;6.778;2023-11-22T00:10:39;19.77;;;12.83;;
11305;SDS011;5708;50.660;6.778;2023-11-22T00:13:05;19.87;;;13.40;;
11305;SDS011;5708;50.660;6.778;2023-11-22T00:15:30;22.38;;;13.50;;
11305;SDS011;5708;50.660;6.778;2023-11-22T00:17:55;21.08;;;13.35;;
11305;SDS011;5708;50.660;6.778;2023-11-22T00:20:22;19.75;;;13.25;;
11305;SDS011;5708;50.660;6.778;2023-11-22T00:22:48;21.13;;;13.45;;
11305;SDS011;5708;50.660;6.778;2023-11-22T00:25:13;20.30;;;13.10;;
11305;SDS011;5708;50.660;6.778;2023-11-22T00:27:38;22.08;;;13.45;;
11305;SDS011;5708;50.660;6.778;2023-11-22T00:30:04;21.85;;;12.63;;
11305;SDS011;5708;50.660;6.778;2023-11-22T00:32:29;20.73;;;13.20;;
11305;SDS011;5708;50.660;6.778;2023-11-22T00:34:54;21.07;;;14.07;;
11305;SDS011;5708;50.660;6.778;2023-11-22T00:37:20;22.95;;;13.95;;
11305;SDS011;5708;50.660;6.778;2023-11-22T00:39:45;22.60;;;12.37;;
11305;SDS011;5708;50.660;6.778;2023-11-22T00:42:10;23.27;;;14.27;;
11305;SDS011;5708;50.660;6.778;2023-11-22T00:44:35;19.37;;;12.97;;
11305;SDS011;5708;50.660;6.778;2023-11-22T00:47:04;21.83;;;13.63;;
11305;SDS011;5708;50.660;6.778;2023-11-22T00:49:29;20.73;;;13.50;;
11305;SDS011;5708;50.660;6.778;2023-11-22T00:51:54;21.88;;;13.85;;
11305;SDS011;5708;50.660;6.778;2023-11-22T00:54:19;20.17;;;13.38;;
11305;SDS011;5708;50.660;6.778;2023-11-22T00:56:45;25.35;;;14.45;;
11305;SDS011;5708;50.660;6.778;2023-11-22T00:59:10;21.08;;;13.43;;
11305;SDS011;5708;50.660;6.778;2023-11-22T01:01:35;20.13;;;12.63;;
11305;SDS011;5708;50.660;6.778;2023-11-22T01:04:01;20.75;;;13.45;;
11305;SDS011;5708;50.660;6.778;2023-11-22T01:06:26;23.30;;;14.52;;
11305;SDS011;5708;50.660;6.778;2023-11-22T01:08:51;23.25;;;15.10;;
11305;SDS011;5708;50.660;6.778;2023-11-22T01:11:20;22.83;;;14.43;;
11305;SDS011;5708;50.660;6.778;2023-11-22T01:13:46;23.73;;;14.88;;
11305;SDS011;5708;50.660;6.778;2023-11-22T01:16:11;20.98;;;13.77;;
11305;SDS011;5708;50.660;6.778;2023-11-22T01:18:37;22.75;;;13.45;;
11305;SDS011;5708;50.660;6.778;2023-11-22T01:21:03;24.40;;;15.98;;
11305;SDS011;5708;50.660;6.778;2023-11-22T01:23:31;24.65;;;15.23;;
11305;SDS011;5708;50.660;6.778;2023-11-22T01:25:59;25.27;;;16.13;;
11305;SDS011;5708;50.660;6.778;2023-11-22T01:28:25;26.20;;;15.85;;
11305;SDS011;5708;50.660;6.778;2023-11-22T01:30:52;25.73;;;16.75;;
11305;SDS011;5708;50.660;6.778;2023-11-22T01:33:17;28.02;;;16.85;;
11305;SDS011;5708;50.660;6.778;2023-11-22T01:35:42;26.57;;;17.77;;
11305;SDS011;5708;50.660;6.778;2023-11-22T01:38:08;28.80;;;17.20;;
11305;SDS011;5708;50.660;6.778;2023-11-22T01:40:33;29.30;;;18.03;;
11305;SDS011;5708;50.660;6.778;2023-11-22T01:42:59;29.08;;;18.73;;
11305;SDS011;5708;50.660;6.778;2023-11-22T01:45:24;30.73;;;18.95;;
11305;SDS011;5708;50.660;6.778;2023-11-22T01:47:50;30.05;;;18.00;;
11305;SDS011;5708;50.660;6.778;2023-11-22T01:50:15;32.42;;;19.08;;
11305;SDS011;5708;50.660;6.778;2023-11-22T01:52:41;32.20;;;18.45;;
11305;SDS011;5708;50.660;6.778;2023-11-22T01:55:07;30.30;;;19.40;;
11305;SDS011;5708;50.660;6.778;2023-11-22T01:57:34;31.35;;;18.88;;
11305;SDS011;5708;50.660;6.778;2023-11-22T02:00:03;31.45;;;19.05;;
11305;SDS011;5708;50.660;6.778;2023-11-22T02:02:29;31.42;;;19.65;;
11305;SDS011;5708;50.660;6.778;2023-11-22T02:04:55;32.45;;;19.10;;
11305;SDS011;5708;50.660;6.778;2023-11-22T02:07:20;32.10;;;19.07;;
11305;SDS011;5708;50.660;6.778;2023-11-22T02:09:45;31.35;;;18.60;;
11305;SDS011;5708;50.660;6.778;2023-11-22T02:12:11;29.30;;;18.02;;
11305;SDS011;5708;50.660;6.778;2023-11-22T02:14:37;28.70;;;17.55;;
11305;SDS011;5708;50.660;6.778;2023-11-22T02:17:02;33.45;;;19.75;;
11305;SDS011;5708;50.660;6.778;2023-11-22T02:19:28;35.28;;;19.80;;
11305;SDS011;5708;50.660;6.778;2023-11-22T02:21:55;34.33;;;19.05;;
11305;SDS011;5708;50.660;6.778;2023-11-22T02:24:20;34.58;;;19.23;;
11305;SDS011;5708;50.660;6.778;2023-11-22T02:26:46;29.85;;;18.63;;
11305;SDS011;5708;50.660;6.778;2023-11-22T02:29:12;35.45;;;21.42;;
11305;SDS011;5708;50.660;6.778;2023-11-22T02:31:38;32.28;;;19.10;;
11305;SDS011;5708;50.660;6.778;2023-11-22T02:34:03;31.75;;;18.83;;
11305;SDS011;5708;50.660;6.778;2023-11-22T02:36:29;34.10;;;18.50;;
11305;SDS011;5708;50.660;6.778;2023-11-22T02:38:56;34.90;;;21.25;;
11305;SDS011;5708;50.660;6.778;2023-11-22T02:41:21;38.35;;;21.10;;
11305;SDS011;5708;50.660;6.778;2023-11-22T02:43:47;34.72;;;20.25;;
11305;SDS011;5708;50.660;6.778;2023-11-22T02:46:12;33.30;;;19.83;;
11305;SDS011;5708;50.660;6.778;2023-11-22T02:48:37;35.37;;;20.30;;
11305;SDS011;5708;50.660;6.778;2023-11-22T02:51:02;34.93;;;21.23;;
11305;SDS011;5708;50.660;6.778;2023-11-22T02:53:28;31.90;;;20.07;;
11305;SDS011;5708;50.660;6.778;2023-11-22T02:55:55;33.22;;;20.27;;
11305;SDS011;5708;50.660;6.778;2023-11-22T02:58:23;37.58;;;20.88;;
11305;SDS011;5708;50.660;6.778;2023-11-22T03:00:48;33.23;;;20.07;;
11305;SDS011;5708;50.660;6.778;2023-11-22T03:03:14;37.28;;;20.55;;
11305;SDS011;5708;50.660;6.778;2023-11-22T03:05:40;34.28;;;20.05;;
11305;SDS011;5708;50.660;6.778;2023-11-22T03:08:05;33.00;;;19.85;;
11305;SDS011;5708;50.660;6.778;2023-11-22T03:10:32;36.45;;;21.00;;
11305;SDS011;5708;50.660;6.778;2023-11-22T03:12:57;37.85;;;20.60;;
11305;SDS011;5708;50.660;6.778;2023-11-22T03:15:22;35.30;;;20.80;;
11305;SDS011;5708;50.660;6.778;2023-11-22T03:17:48;37.17;;;20.67;;
11305;SDS011;5708;50.660;6.778;2023-11-22T03:20:13;38.20;;;20.35;;
11305;SDS011;5708;50.660;6.778;2023-11-22T03:22:40;36.15;;;20.15;;
11305;SDS011;5708;50.660;6.778;2023-11-22T03:25:07;43.47;;;22.50;;
11305;SDS011;5708;50.660;6.778;2023-11-22T03:27:34;33.83;;;20.17;;
11305;SDS011;5708;50.660;6.778;2023-11-22T03:30:00;40.07;;;22.07;;
11305;SDS011;5708;50.660;6.778;2023-11-22T03:32:25;37.77;;;21.67;;
11305;SDS011;5708;50.660;6.778;2023-11-22T03:34:50;39.00;;;21.55;;
11305;SDS011;5708;50.660;6.778;2023-11-22T03:37:16;39.17;;;21.00;;
11305;SDS011;5708;50.660;6.778;2023-11-22T03:39:42;39.17;;;21.67;;
11305;SDS011;5708;50.660;6.778;2023-11-22T03:42:13;40.67;;;22.48;;
11305;SDS011;5708;50.660;6.778;2023-11-22T03:44:38;45.50;;;22.67;;
11305;SDS011;5708;50.660;6.778;2023-11-22T03:47:03;40.00;;;22.00;;
11305;SDS011;5708;50.660;6.778;2023-11-22T03:49:29;40.58;;;22.10;;
11305;SDS011;5708;50.660;6.778;2023-11-22T03:51:54;42.47;;;23.30;;
11305;SDS011;5708;50.660;6.778;2023-11-22T03:54:19;40.38;;;22.55;;
11305;SDS011;5708;50.660;6.778;2023-11-22T03:56:45;41.58;;;22.10;;
11305;SDS011;5708;50.660;6.778;2023-11-22T03:59:10;41.95;;;23.05;;
11305;SDS011;5708;50.660;6.778;2023-11-22T04:01:35;40.47;;;22.30;;
11305;SDS011;5708;50.660;6.778;2023-11-22T04:04:00;37.70;;;20.35;;
11305;SDS011;5708;50.660;6.778;2023-11-22T04:06:26;41.53;;;22.57;;
11305;SDS011;5708;50.660;6.778;2023-11-22T04:08:51;39.78;;;21.85;;
11305;SDS011;5708;50.660;6.778;2023-11-22T04:11:18;38.45;;;23.10;;
11305;SDS011;5708;50.660;6.778;2023-11-22T04:13:43;42.42;;;22.23;;
11305;SDS011;5708;50.660;6.778;2023-11-22T04:16:08;37.90;;;21.67;;
11305;SDS011;5708;50.660;6.778;2023-11-22T04:18:36;39.50;;;22.10;;
11305;SDS011;5708;50.660;6.778;2023-11-22T04:21:01;42.30;;;21.42;;
11305;SDS011;5708;50.660;6.778;2023-11-22T04:23:29;44.05;;;21.20;;
11305;SDS011;5708;50.660;6.778;2023-11-22T04:25:54;37.40;;;21.38;;
11305;SDS011;5708;50.660;6.778;2023-11-22T04:28:20;37.97;;;20.80;;
11305;SDS011;5708;50.660;6.778;2023-11-22T04:30:45;38.03;;;21.20;;
11305;SDS011;5708;50.660;6.778;2023-11-22T04:33:10;37.92;;;21.02;;
11305;SDS011;5708;50.660;6.778;2023-11-22T04:35:36;38.80;;;20.10;;
11305;SDS011;5708;50.660;6.778;2023-11-22T04:38:03;36.50;;;20.73;;
11305;SDS011;5708;50.660;6.778;2023-11-22T04:40:29;38.75;;;20.13;;
11305;SDS011;5708;50.660;6.778;2023-11-22T04:42:54;40.40;;;20.27;;
11305;SDS011;5708;50.660;6.778;2023-11-22T04:45:19;37.50;;;21.10;;
11305;SDS011;5708;50.660;6.778;2023-11-22T04:47:44;42.37;;;21.60;;
11305;SDS011;5708;50.660;6.778;2023-11-22T04:50:10;40.80;;;21.43;;
11305;SDS011;5708;50.660;6.778;2023-11-22T04:52:35;42.47;;;22.27;;
11305;SDS011;5708;50.660;6.778;2023-11-22T04:55:01;40.03;;;21.90;;
11305;SDS011;5708;50.660;6.778;2023-11-22T04:57:26;40.20;;;21.23;;
11305;SDS011;5708;50.660;6.778;2023-11-22T04:59:51;38.20;;;21.40;;
11305;SDS011;5708;50.660;6.778;2023-11-22T05:02:17;40.92;;;22.45;;
11305;SDS011;5708;50.660;6.778;2023-11-22T05:04:42;42.25;;;21.48;;
11305;SDS011;5708;50.660;6.778;2023-11-22T05:07:07;42.88;;;21.42;;
11305;SDS011;5708;50.660;6.778;2023-11-22T05:09:32;41.90;;;21.90;;
11305;SDS011;5708;50.660;6.778;2023-11-22T05:12:01;46.35;;;23.55;;
11305;SDS011;5708;50.660;6.778;2023-11-22T05:14:26;40.80;;;21.52;;
11305;SDS011;5708;50.660;6.778;2023-11-22T05:16:51;40.95;;;20.85;;
11305;SDS011;5708;50.660;6.778;2023-11-22T05:19:16;45.78;;;22.75;;
11305;SDS011;5708;50.660;6.778;2023-11-22T05:21:42;47.23;;;23.47;;
11305;SDS011;5708;50.660;6.778;2023-11-22T05:24:07;47.73;;;21.87;;
11305;SDS011;5708;50.660;6.778;2023-11-22T05:26:32;44.47;;;21.92;;
11305;SDS011;5708;50.660;6.778;2023-11-22T05:28:58;43.67;;;22.67;;
11305;SDS011;5708;50.660;6.778;2023-11-22T05:31:23;49.35;;;23.30;;
11305;SDS011;5708;50.660;6.778;2023-11-22T05:33:48;46.20;;;22.80;;
11305;SDS011;5708;50.660;6.778;2023-11-22T05:36:13;48.40;;;23.47;;
11305;SDS011;5708;50.660;6.778;2023-11-22T05:38:41;49.00;;;23.80;;
11305;SDS011;5708;50.660;6.778;2023-11-22T05:41:07;44.45;;;22.38;;
11305;SDS011;5708;50.660;6.778;2023-11-22T05:43:33;50.67;;;24.23;;
11305;SDS011;5708;50.660;6.778;2023-11-22T05:46:01;49.72;;;24.67;;
11305;SDS011;5708;50.660;6.778;2023-11-22T05:48:26;53.97;;;25.25;;
11305;SDS011;5708;50.660;6.778;2023-11-22T05:50:52;54.00;;;25.40;;
11305;SDS011;5708;50.660;6.778;2023-11-22T05:53:17;48.45;;;24.20;;
11305;SDS011;5708;50.660;6.778;2023-11-22T05:55:47;53.17;;;23.73;;
11305;SDS011;5708;50.660;6.778;2023-11-22T05:58:13;46.75;;;22.73;;
11305;SDS011;5708;50.660;6.778;2023-11-22T06:00:41;46.88;;;22.83;;
11305;SDS011;5708;50.660;6.778;2023-11-22T06:03:06;50.78;;;22.63;;
11305;SDS011;5708;50.660;6.778;2023-11-22T06:05:32;51.97;;;24.77;;
11305;SDS011;5708;50.660;6.778;2023-11-22T06:07:57;50.03;;;22.97;;
11305;SDS011;5708;50.660;6.778;2023-11-22T06:10:23;51.60;;;23.02;;
11305;SDS011;5708;50.660;6.778;2023-11-22T06:12:48;53.08;;;25.35;;
11305;SDS011;5708;50.660;6.778;2023-11-22T06:15:13;49.67;;;23.20;;
11305;SDS011;5708;50.660;6.778;2023-11-22T06:17:39;45.53;;;21.95;;
11305;SDS011;5708;50.660;6.778;2023-11-22T06:20:04;46.80;;;21.60;;
11305;SDS011;5708;50.660;6.778;2023-11-22T06:22:29;44.15;;;22.20;;
11305;SDS011;5708;50.660;6.778;2023-11-22T06:24:55;45.60;;;22.33;;
11305;SDS011;5708;50.660;6.778;2023-11-22T06:27:20;51.07;;;23.67;;
11305;SDS011;5708;50.660;6.778;2023-11-22T06:29:45;47.97;;;23.05;;
11305;SDS011;5708;50.660;6.778;2023-11-22T06:32:11;47.85;;;22.48;;
11305;SDS011;5708;50.660;6.778;2023-11-22T06:34:37;44.30;;;21.47;;
11305;SDS011;5708;50.660;6.778;2023-11-22T06:37:02;47.67;;;23.00;;
11305;SDS011;5708;50.660;6.778;2023-11-22T06:39:27;47.50;;;22.13;;
11305;SDS011;5708;50.660;6.778;2023-11-22T06:41:53;44.53;;;22.55;;
11305;SDS011;5708;50.660;6.778;2023-11-22T06:44:18;47.47;;;22.30;;
11305;SDS011;5708;50.660;6.778;2023-11-22T06:46:43;45.38;;;21.80;;
11305;SDS011;5708;50.660;6.778;2023-11-22T06:49:08;44.30;;;22.60;;
11305;SDS011;5708;50.660;6.778;2023-11-22T06:51:34;54.92;;;25.17;;
11305;SDS011;5708;50.660;6.778;2023-11-22T06:53:59;49.27;;;23.37;;
11305;SDS011;5708;50.660;6.778;2023-11-22T06:56:24;52.10;;;22.87;;
11305;SDS011;5708;50.660;6.778;2023-11-22T06:58:49;47.60;;;22.47;;
11305;SDS011;5708;50.660;6.778;2023-11-22T07:01:16;49.40;;;23.23;;
11305;SDS011;5708;50.660;6.778;2023-11-22T07:03:41;50.50;;;23.05;;
11305;SDS011;5708;50.660;6.778;2023-11-22T07:06:07;50.33;;;22.23;;
11305;SDS011;5708;50.660;6.778;2023-11-22T07:08:32;48.00;;;23.30;;
11305;SDS011;5708;50.660;6.778;2023-11-22T07:10:58;45.97;;;22.60;;
11305;SDS011;5708;50.660;6.778;2023-11-22T07:13:23;48.75;;;22.20;;
11305;SDS011;5708;50.660;6.778;2023-11-22T07:15:49;47.80;;;22.98;;
11305;SDS011;5708;50.660;6.778;2023-11-22T07:18:15;44.17;;;21.27;;
11305;SDS011;5708;50.660;6.778;2023-11-22T07:20:41;45.28;;;21.75;;
11305;SDS011;5708;50.660;6.778;2023-11-22T07:23:06;48.10;;;22.27;;
11305;SDS011;5708;50.660;6.778;2023-11-22T07:25:31;44.28;;;22.05;;
11305;SDS011;5708;50.660;6.778;2023-11-22T07:27:58;46.13;;;22.63;;
11305;SDS011;5708;50.660;6.778;2023-11-22T07:30:25;49.55;;;23.08;;
11305;SDS011;5708;50.660;6.778;2023-11-22T07:32:55;49.38;;;23.67;;
11305;SDS011;5708;50.660;6.778;2023-11-22T07:35:20;61.77;;;27.50;;
11305;SDS011;5708;50.660;6.778;2023-11-22T07:37:46;52.83;;;24.30;;
11305;SDS011;5708;50.660;6.778;2023-11-22T07:40:12;53.45;;;24.10;;
11305;SDS011;5708;50.660;6.778;2023-11-22T07:42:38;47.67;;;22.85;;
11305;SDS011;5708;50.660;6.778;2023-11-22T07:45:04;55.83;;;25.38;;
11305;SDS011;5708;50.660;6.778;2023-11-22T07:47:29;55.92;;;25.55;;
11305;SDS011;5708;50.660;6.778;2023-11-22T07:49:55;59.10;;;24.98;;
11305;SDS011;5708;50.660;6.778;2023-11-22T07:52:20;60.67;;;25.80;;
11305;SDS011;5708;50.660;6.778;2023-11-22T07:54:46;57.65;;;24.75;;
11305;SDS011;5708;50.660;6.778;2023-11-22T07:57:11;50.70;;;23.00;;
11305;SDS011;5708;50.660;6.778;2023-11-22T07:59:36;53.90;;;23.38;;
11305;SDS011;5708;50.660;6.778;2023-11-22T08:02:02;56.00;;;24.60;;
11305;SDS011;5708;50.660;6.778;2023-11-22T08:04:27;53.88;;;23.60;;
11305;SDS011;5708;50.660;6.778;2023-11-22T08:06:53;53.00;;;23.90;;
11305;SDS011;5708;50.660;6.778;2023-11-22T08:09:22;49.13;;;22.98;;
11305;SDS011;5708;50.660;6.778;2023-11-22T08:11:47;56.95;;;24.48;;
11305;SDS011;5708;50.660;6.778;2023-11-22T08:14:12;50.53;;;23.38;;
11305;SDS011;5708;50.660;6.778;2023-11-22T08:16:38;51.80;;;22.92;;
11305;SDS011;5708;50.660;6.778;2023-11-22T08:19:07;51.55;;;23.35;;
11305;SDS011;5708;50.660;6.778;2023-11-22T08:21:32;56.95;;;24.17;;
11305;SDS011;5708;50.660;6.778;2023-11-22T08:23:58;51.60;;;24.87;;
11305;SDS011;5708;50.660;6.778;2023-11-22T08:26:24;54.10;;;25.45;;
11305;SDS011;5708;50.660;6.778;2023-11-22T08:28:50;57.75;;;27.00;;
11305;SDS011;5708;50.660;6.778;2023-11-22T08:31:15;59.70;;;27.63;;
11305;SDS011;5708;50.660;6.778;2023-11-22T08:33:41;61.60;;;27.67;;
11305;SDS011;5708;50.660;6.778;2023-11-22T08:36:07;63.85;;;28.75;;
11305;SDS011;5708;50.660;6.778;2023-11-22T08:38:33;54.33;;;25.45;;
11305;SDS011;5708;50.660;6.778;2023-11-22T08:41:05;56.10;;;26.40;;
11305;SDS011;5708;50.660;6.778;2023-11-22T08:43:31;54.25;;;24.90;;
11305;SDS011;5708;50.660;6.778;2023-11-22T08:45:57;54.78;;;24.90;;
11305;SDS011;5708;50.660;6.778;2023-11-22T08:48:22;57.42;;;25.65;;
11305;SDS011;5708;50.660;6.778;2023-11-22T08:50:49;57.25;;;25.67;;
11305;SDS011;5708;50.660;6.778;2023-11-22T08:53:14;53.65;;;26.05;;
11305;SDS011;5708;50.660;6.778;2023-11-22T08:55:40;56.90;;;25.58;;
11305;SDS011;5708;50.660;6.778;2023-11-22T08:58:05;51.92;;;25.02;;
11305;SDS011;5708;50.660;6.778;2023-11-22T09:00:33;57.33;;;24.52;;
11305;SDS011;5708;50.660;6.778;2023-11-22T09:02:58;50.22;;;25.27;;
11305;SDS011;5708;50.660;6.778;2023-11-22T09:05:23;55.53;;;25.77;;
11305;SDS011;5708;50.660;6.778;2023-11-22T09:07:49;47.40;;;24.58;;
11305;SDS011;5708;50.660;6.778;2023-11-22T09:10:16;57.08;;;26.98;;
11305;SDS011;5708;50.660;6.778;2023-11-22T09:12:43;58.47;;;28.63;;
11305;SDS011;5708;50.660;6.778;2023-11-22T09:15:12;46.90;;;23.90;;
11305;SDS011;5708;50.660;6.778;2023-11-22T09:17:42;53.00;;;26.63;;
11305;SDS011;5708;50.660;6.778;2023-11-22T09:20:11;55.28;;;27.35;;
11305;SDS011;5708;50.660;6.778;2023-11-22T09:22:41;50.58;;;26.40;;
11305;SDS011;5708;50.660;6.778;2023-11-22T09:25:10;49.08;;;25.98;;
11305;SDS011;5708;50.660;6.778;2023-11-22T09:27:36;49.35;;;24.80;;
11305;SDS011;5708;50.660;6.778;2023-11-22T09:30:02;52.17;;;27.90;;
11305;SDS011;5708;50.660;6.778;2023-11-22T09:32:27;51.47;;;26.67;;
11305;SDS011;5708;50.660;6.778;2023-11-22T09:34:53;50.10;;;25.37;;
11305;SDS011;5708;50.660;6.778;2023-11-22T09:37:22;53.63;;;27.52;;
11305;SDS011;5708;50.660;6.778;2023-11-22T09:39:48;48.50;;;23.77;;
11305;SDS011;5708;50.660;6.778;2023-11-22T09:42:13;48.22;;;24.10;;
11305;SDS011;5708;50.660;6.778;2023-11-22T09:44:38;48.75;;;23.92;;
11305;SDS011;5708;50.660;6.778;2023-11-22T09:47:04;47.63;;;24.40;;
11305;SDS011;5708;50.660;6.778;2023-11-22T09:49:29;43.03;;;22.85;;
11305;SDS011;5708;50.660;6.778;2023-11-22T09:51:55;40.60;;;22.13;;
11305;SDS011;5708;50.660;6.778;2023-11-22T09:54:23;44.00;;;21.27;;
11305;SDS011;5708;50.660;6.778;2023-11-22T09:56:54;42.78;;;23.00;;
11305;SDS011;5708;50.660;6.778;2023-11-22T09:59:20;44.55;;;23.80;;
11305;SDS011;5708;50.660;6.778;2023-11-22T10:01:48;41.05;;;21.75;;
11305;SDS011;5708;50.660;6.778;2023-11-22T10:04:16;41.80;;;21.98;;
11305;SDS011;5708;50.660;6.778;2023-11-22T10:06:42;40.08;;;21.63;;
11305;SDS011;5708;50.660;6.778;2023-11-22T10:09:11;46.90;;;22.65;;
11305;SDS011;5708;50.660;6.778;2023-11-22T10:11:39;33.83;;;17.92;;
11305;SDS011;5708;50.660;6.778;2023-11-22T10:14:08;35.67;;;19.40;;
11305;SDS011;5708;50.660;6.778;2023-11-22T10:16:33;39.53;;;20.42;;
11305;SDS011;5708;50.660;6.778;2023-11-22T10:18:59;35.75;;;18.42;;
11305;SDS011;5708;50.660;6.778;2023-11-22T10:21:25;32.08;;;17.42;;
11305;SDS011;5708;50.660;6.778;2023-11-22T10:23:53;31.25;;;17.63;;
11305;SDS011;5708;50.660;6.778;2023-11-22T10:26:18;33.00;;;18.02;;
11305;SDS011;5708;50.660;6.778;2023-11-22T10:28:43;32.33;;;15.90;;
11305;SDS011;5708;50.660;6.778;2023-11-22T10:31:09;31.33;;;16.40;;
11305;SDS011;5708;50.660;6.778;2023-11-22T10:33:41;29.80;;;16.52;;
11305;SDS011;5708;50.660;6.778;2023-11-22T10:36:07;29.70;;;15.50;;
11305;SDS011;5708;50.660;6.778;2023-11-22T10:38:33;30.08;;;15.55;;
11305;SDS011;5708;50.660;6.778;2023-11-22T10:40:59;30.92;;;15.93;;
11305;SDS011;5708;50.660;6.778;2023-11-22T10:43:26;24.05;;;13.18;;
11305;SDS011;5708;50.660;6.778;2023-11-22T10:45:54;21.13;;;11.73;;
11305;SDS011;5708;50.660;6.778;2023-11-22T10:48:20;18.23;;;10.40;;
11305;SDS011;5708;50.660;6.778;2023-11-22T10:50:46;15.55;;;9.40;;
11305;SDS011;5708;50.660;6.778;2023-11-22T10:53:12;17.70;;;10.00;;
11305;SDS011;5708;50.660;6.778;2023-11-22T10:55:39;16.27;;;10.20;;
11305;SDS011;5708;50.660;6.778;2023-11-22T10:58:06;17.42;;;10.80;;
11305;SDS011;5708;50.660;6.778;2023-11-22T11:00:33;15.07;;;8.57;;
11305;SDS011;5708;50.660;6.778;2023-11-22T11:03:01;15.35;;;9.02;;
11305;SDS011;5708;50.660;6.778;2023-11-22T11:05:30;17.05;;;9.25;;
11305;SDS011;5708;50.660;6.778;2023-11-22T11:08:16;16.60;;;8.73;;
11305;SDS011;5708;50.660;6.778;2023-11-22T11:10:42;16.10;;;8.23;;
11305;SDS011;5708;50.660;6.778;2023-11-22T11:13:08;11.77;;;7.15;;
11305;SDS011;5708;50.660;6.778;2023-11-22T11:15:38;13.75;;;8.18;;
11305;SDS011;5708;50.660;6.778;2023-11-22T11:18:04;12.60;;;7.07;;
11305;SDS011;5708;50.660;6.778;2023-11-22T11:20:33;11.30;;;6.53;;
11305;SDS011;5708;50.660;6.778;2023-11-22T11:23:01;12.02;;;6.13;;
11305;SDS011;5708;50.660;6.778;2023-11-22T11:25:26;9.35;;;5.60;;
11305;SDS011;5708;50.660;6.778;2023-11-22T11:27:56;9.95;;;5.63;;
11305;SDS011;5708;50.660;6.778;2023-11-22T11:33:00;9.40;;;5.25;;
11305;SDS011;5708;50.660;6.778;2023-11-22T11:35:39;12.25;;;5.13;;
11305;SDS011;5708;50.660;6.778;2023-11-22T11:38:04;9.70;;;5.50;;
11305;SDS011;5708;50.660;6.778;2023-11-22T11:40:36;17.52;;;8.43;;
11305;SDS011;5708;50.660;6.778;2023-11-22T11:43:01;10.73;;;5.85;;
11305;SDS011;5708;50.660;6.778;2023-11-22T11:45:27;14.15;;;6.50;;
11305;SDS011;5708;50.660;6.778;2023-11-22T11:47:52;9.57;;;5.65;;
11305;SDS011;5708;50.660;6.778;2023-11-22T11:50:20;11.32;;;6.05;;
11305;SDS011;5708;50.660;6.778;2023-11-22T11:52:45;11.57;;;5.78;;
11305;SDS011;5708;50.660;6.778;2023-11-22T11:55:10;10.48;;;5.82;;
11305;SDS011;5708;50.660;6.778;2023-11-22T11:57:35;10.60;;;5.83;;
11305;SDS011;5708;50.660;6.778;2023-11-22T12:00:02;9.82;;;5.57;;
11305;SDS011;5708;50.660;6.778;2023-11-22T12:02:29;12.52;;;6.20;;
11305;SDS011;5708;50.660;6.778;2023-11-22T12:04:54;10.13;;;5.37;;
11305;SDS011;5708;50.660;6.778;2023-11-22T12:07:19;11.60;;;5.83;;
11305;SDS011;5708;50.660;6.778;2023-11-22T12:09:45;11.60;;;5.60;;
11305;SDS011;5708;50.660;6.778;2023-11-22T12:12:11;9.07;;;5.43;;
11305;SDS011;5708;50.660;6.778;2023-11-22T12:14:37;10.53;;;5.17;;
11305;SDS011;5708;50.660;6.778;2023-11-22T12:17:03;9.63;;;4.80;;
11305;SDS011;5708;50.660;6.778;2023-11-22T12:19:28;9.55;;;5.10;;
11305;SDS011;5708;50.660;6.778;2023-11-22T12:21:56;9.23;;;5.63;;
11305;SDS011;5708;50.660;6.778;2023-11-22T12:24:21;10.18;;;5.90;;
11305;SDS011;5708;50.660;6.778;2023-11-22T12:26:46;9.60;;;5.38;;
11305;SDS011;5708;50.660;6.778;2023-11-22T12:29:14;9.57;;;5.30;;
11305;SDS011;5708;50.660;6.778;2023-11-22T12:31:49;11.30;;;5.47;;
11305;SDS011;5708;50.660;6.778;2023-11-22T12:34:20;10.25;;;6.20;;
11305;SDS011;5708;50.660;6.778;2023-11-22T12:36:45;12.20;;;5.57;;
11305;SDS011;5708;50.660;6.778;2023-11-22T12:39:12;10.32;;;5.78;;
11305;SDS011;5708;50.660;6.778;2023-11-22T12:41:42;17.23;;;8.20;;
11305;SDS011;5708;50.660;6.778;2023-11-22T12:44:07;14.98;;;8.18;;
11305;SDS011;5708;50.660;6.778;2023-11-22T12:46:45;13.98;;;7.70;;
11305;SDS011;5708;50.660;6.778;2023-11-22T12:49:11;13.38;;;6.30;;
11305;SDS011;5708;50.660;6.778;2023-11-22T12:51:37;11.80;;;6.47;;
11305;SDS011;5708;50.660;6.778;2023-11-22T12:54:02;9.32;;;5.70;;
11305;SDS011;5708;50.660;6.778;2023-11-22T12:56:27;12.20;;;5.75;;
11305;SDS011;5708;50.660;6.778;2023-11-22T12:58:53;12.32;;;5.82;;
11305;SDS011;5708;50.660;6.778;2023-11-22T13:01:18;11.60;;;5.43;;
11305;SDS011;5708;50.660;6.778;2023-11-22T13:03:45;9.05;;;5.05;;
11305;SDS011;5708;50.660;6.778;2023-11-22T13:06:10;10.57;;;5.50;;
11305;SDS011;5708;50.660;6.778;2023-11-22T13:08:36;8.95;;;5.00;;
11305;SDS011;5708;50.660;6.778;2023-11-22T13:11:01;11.07;;;4.77;;
11305;SDS011;5708;50.660;6.778;2023-11-22T13:13:26;10.15;;;5.25;;
11305;SDS011;5708;50.660;6.778;2023-11-22T13:15:52;9.00;;;5.07;;
11305;SDS011;5708;50.660;6.778;2023-11-22T13:18:18;10.25;;;5.38;;
11305;SDS011;5708;50.660;6.778;2023-11-22T13:20:44;9.27;;;5.05;;
11305;SDS011;5708;50.660;6.778;2023-11-22T13:23:10;8.07;;;4.88;;
11305;SDS011;5708;50.660;6.778;2023-11-22T13:25:35;9.20;;;4.85;;
11305;SDS011;5708;50.660;6.778;2023-11-22T13:28:01;12.00;;;6.07;;
11305;SDS011;5708;50.660;6.778;2023-11-22T13:30:27;16.13;;;8.50;;
11305;SDS011;5708;50.660;6.778;2023-11-22T13:32:53;11.80;;;5.70;;
11305;SDS011;5708;50.660;6.778;2023-11-22T13:35:21;9.23;;;5.03;;
11305;SDS011;5708;50.660;6.778;2023-11-22T13:37:47;8.75;;;4.80;;
11305;SDS011;5708;50.660;6.778;2023-11-22T13:40:17;9.63;;;4.90;;
11305;SDS011;5708;50.660;6.778;2023-11-22T13:42:46;8.70;;;4.75;;
11305;SDS011;5708;50.660;6.778;2023-11-22T13:45:13;8.48;;;4.72;;
11305;SDS011;5708;50.660;6.778;2023-11-22T13:47:48;10.43;;;5.00;;
11305;SDS011;5708;50.660;6.778;2023-11-22T13:50:14;9.80;;;5.22;;
11305;SDS011;5708;50.660;6.778;2023-11-22T13:52:44;8.85;;;4.78;;
11305;SDS011;5708;50.660;6.778;2023-11-22T13:55:10;10.68;;;4.78;;
11305;SDS011;5708;50.660;6.778;2023-11-22T13:57:37;11.07;;;4.38;;
11305;SDS011;5708;50.660;6.778;2023-11-22T14:00:04;9.15;;;5.05;;
11305;SDS011;5708;50.660;6.778;2023-11-22T14:02:34;8.48;;;4.20;;
11305;SDS011;5708;50.660;6.778;2023-11-22T14:04:59;8.38;;;4.22;;
11305;SDS011;5708;50.660;6.778;2023-11-22T14:07:24;7.80;;;4.05;;
11305;SDS011;5708;50.660;6.778;2023-11-22T14:09:52;6.25;;;3.47;;
11305;SDS011;5708;50.660;6.778;2023-11-22T14:12:18;7.82;;;3.03;;
11305;SDS011;5708;50.660;6.778;2023-11-22T14:14:43;5.90;;;2.97;;
11305;SDS011;5708;50.660;6.778;2023-11-22T14:17:10;6.03;;;3.00;;
11305;SDS011;5708;50.660;6.778;2023-11-22T14:19:35;6.07;;;3.07;;
11305;SDS011;5708;50.660;6.778;2023-11-22T14:22:00;7.20;;;3.53;;
11305;SDS011;5708;50.660;6.778;2023-11-22T14:24:27;6.40;;;3.67;;
11305;SDS011;5708;50.660;6.778;2023-11-22T14:26:54;7.00;;;3.75;;
11305;SDS011;5708;50.660;6.778;2023-11-22T14:29:20;6.85;;;3.25;;
11305;SDS011;5708;50.660;6.778;2023-11-22T14:31:45;13.23;;;3.97;;
11305;SDS011;5708;50.660;6.778;2023-11-22T14:34:10;9.23;;;3.90;;